| time (UTC) | temp F | wind direction | speed knots | gust knots | rain 1hr in | rain 24hr in | rain mn in | humidity % | barometer mb |
| 20260504014532 | 61 | 224 | 1.7 | 4.3 | 0.00 | 0.04 | 0.04 | 64 | 1005.5 |
| 20260504013031 | 62 | 221 | 1.7 | 5.2 | 0.00 | 0.04 | 0.04 | 62 | 1005.4 |
| 20260504011530 | 63 | 234 | 1.7 | 7.0 | 0.00 | 0.04 | 0.04 | 61 | 1005.4 |
| 20260504010030 | 64 | 257 | 1.7 | 6.1 | 0.00 | 0.04 | 0.04 | 60 | 1005.3 |
| 20260504004540 | 64 | 253 | 2.6 | 7.0 | 0.00 | 0.04 | 0.04 | 59 | 1005.3 |
| 20260504003028 | 65 | 255 | 2.6 | 5.2 | 0.00 | 0.04 | 0.04 | 57 | 1005.3 |
| 20260504001527 | 66 | 239 | 4.3 | 9.6 | 0.00 | 0.04 | 0.04 | 56 | 1005.5 |
| 20260504000027 | 66 | 236 | 2.6 | 7.8 | 0.00 | 0.04 | 0.04 | 56 | 1005.4 |
| 20260503234524 | 67 | 257 | 2.6 | 7.8 | 0.00 | 0.04 | 0.04 | 55 | 1005.4 |
| 20260503233029 | 67 | 238 | 4.3 | 7.8 | 0.00 | 0.04 | 0.04 | 53 | 1005.4 |
| 20260503231513 | 67 | 251 | 2.6 | 12.2 | 0.00 | 0.04 | 0.04 | 53 | 1005.4 |
| 20260503230115 | 67 | 235 | 5.2 | 13.0 | 0.00 | 0.04 | 0.04 | 51 | 1005.5 |
| 20260503224515 | 67 | 236 | 1.7 | 7.8 | 0.00 | 0.04 | 0.04 | 53 | 1005.8 |
| 20260503223013 | 67 | 257 | 4.3 | 8.7 | 0.00 | 0.04 | 0.04 | 52 | 1005.9 |
| 20260503221509 | 66 | 249 | 3.5 | 8.7 | 0.00 | 0.04 | 0.04 | 53 | 1006.1 |
| 20260503220008 | 65 | 237 | 2.6 | 7.8 | 0.00 | 0.04 | 0.04 | 53 | 1006.2 |
| 20260503214507 | 66 | 243 | 2.6 | 8.7 | 0.00 | 0.04 | 0.04 | 54 | 1006.3 |
| 20260503213007 | 66 | 220 | 5.2 | 14.8 | 0.00 | 0.04 | 0.04 | 54 | 1006.6 |
| 20260503211502 | 65 | 252 | 3.5 | 10.4 | 0.00 | 0.04 | 0.04 | 53 | 1006.9 |
| 20260503210100 | 64 | 245 | 5.2 | 11.3 | 0.00 | 0.04 | 0.04 | 53 | 1007.2 |
| 20260503204559 | 64 | 237 | 7.0 | 12.2 | 0.00 | 0.04 | 0.04 | 50 | 1007.6 |
| 20260503203056 | 65 | 258 | 7.8 | 13.0 | 0.00 | 0.04 | 0.04 | 50 | 1007.8 |
| 20260503201555 | 65 | 241 | 7.0 | 14.8 | 0.00 | 0.04 | 0.04 | 50 | 1008.0 |
| 20260503200052 | 65 | 248 | 9.6 | 17.4 | 0.00 | 0.04 | 0.04 | 53 | 1008.0 |
| 20260503194549 | 63 | 236 | 6.1 | 19.1 | 0.00 | 0.04 | 0.04 | 55 | 1008.3 |
| 20260503193049 | 62 | 235 | 8.7 | 15.6 | 0.00 | 0.04 | 0.04 | 58 | 1008.4 |
| 20260503191541 | 61 | 209 | 4.3 | 11.3 | 0.00 | 0.04 | 0.04 | 65 | 1008.9 |
| 20260503190042 | 59 | 199 | 5.2 | 20.9 | 0.00 | 0.04 | 0.04 | 67 | 1009.0 |
| 20260503184531 | 58 | 203 | 5.2 | 25.2 | 0.00 | 0.04 | 0.04 | 71 | 1009.4 |
| 20260503183028 | 56 | 253 | 4.3 | 14.8 | 0.01 | 0.04 | 0.04 | 78 | 1009.6 |
| 20260503181525 | 53 | 222 | 7.0 | 19.1 | 0.01 | 0.04 | 0.04 | 82 | 1010.0 |
| 20260503180020 | 51 | 237 | 4.3 | 13.0 | 0.01 | 0.04 | 0.04 | 85 | 1010.5 |
| 20260503174516 | 49 | 187 | 7.0 | 10.4 | 0.02 | 0.04 | 0.04 | 89 | 1011.0 |
| 20260503173019 | 49 | 235 | 3.5 | 12.2 | 0.01 | 0.03 | 0.03 | 92 | 1011.7 |
| 20260503171510 | 49 | 222 | 3.5 | 9.6 | 0.01 | 0.03 | 0.03 | 92 | 1012.3 |
| 20260503081548 | 45 | 263 | 0.9 | 4.3 | 0.00 | 0.00 | 0.00 | 69 | 1015.0 |
| 20260503071543 | 44 | 268 | 0.9 | 2.6 | 0.00 | 0.00 | 0.00 | 69 | 1015.1 |
| 20260503054532 | 44 | 268 | 0.0 | 0.0 | 0.00 | 0.00 | 0.00 | 68 | 1015.8 |
| 20260503053023 | 45 | 268 | 0.0 | 0.0 | 0.00 | 0.00 | 0.00 | 65 | 1016.0 |
| 20260503051520 | 46 | 268 | 0.9 | 3.5 | 0.00 | 0.00 | 0.00 | 63 | 1016.0 |
| 20260503050020 | 46 | 268 | 0.9 | 3.5 | 0.00 | 0.00 | 0.00 | 63 | 1016.2 |
| 20260503044517 | 46 | 296 | 1.7 | 3.5 | 0.00 | 0.00 | 0.00 | 67 | 1016.2 |
| 20260503043015 | 46 | 303 | 0.9 | 2.6 | 0.00 | 0.00 | 0.00 | 65 | 1016.2 |
| 20260503041514 | 46 | 304 | 0.9 | 2.6 | 0.00 | 0.00 | 0.00 | 66 | 1016.2 |
| 20260503040013 | 46 | 304 | 0.9 | 2.6 | 0.00 | 0.00 | 0.00 | 66 | 1016.3 |
| 20260503034513 | 46 | 304 | 0.9 | 2.6 | 0.00 | 0.00 | 0.00 | 66 | 1016.4 |
| 20260503033021 | 46 | 304 | 0.9 | 2.6 | 0.00 | 0.00 | 0.00 | 65 | 1016.4 |
| 20260503031512 | 47 | 304 | 0.9 | 2.6 | 0.00 | 0.00 | 0.00 | 65 | 1016.5 |
| 20260503030012 | 47 | 304 | 0.9 | 2.6 | 0.00 | 0.00 | 0.00 | 64 | 1016.5 |
| 20260503024509 | 47 | 304 | 0.9 | 2.6 | 0.00 | 0.00 | 0.00 | 63 | 1016.5 |
| 20260503023009 | 47 | 304 | 0.9 | 2.6 | 0.00 | 0.00 | 0.00 | 63 | 1016.5 |
| 20260503021513 | 47 | 304 | 0.9 | 1.7 | 0.00 | 0.00 | 0.00 | 63 | 1016.5 |
| 20260503020008 | 48 | 304 | 0.0 | 0.0 | 0.00 | 0.00 | 0.00 | 60 | 1016.5 |